createdAt,value
2023-03-28T00:02:12.000Z,0
2023-03-28T00:04:53.000Z,0
2023-03-28T00:07:34.000Z,0
2023-03-28T00:10:15.000Z,0
2023-03-28T00:12:57.000Z,0
2023-03-28T00:15:38.000Z,0
2023-03-28T00:18:28.000Z,0
2023-03-28T00:21:08.000Z,0
2023-03-28T00:23:49.000Z,0
2023-03-28T00:26:29.000Z,0
2023-03-28T00:29:07.000Z,0
2023-03-28T00:31:47.000Z,0
2023-03-28T00:34:28.000Z,0
2023-03-28T00:37:08.000Z,0
2023-03-28T00:39:48.000Z,0
2023-03-28T00:42:30.000Z,0
2023-03-28T00:45:13.000Z,0
2023-03-28T00:47:55.000Z,0
2023-03-28T00:50:38.000Z,0
2023-03-28T00:53:18.000Z,0
2023-03-28T00:55:56.000Z,0
2023-03-28T00:58:42.000Z,0
2023-03-28T01:01:24.000Z,0
2023-03-28T01:04:06.000Z,0
2023-03-28T01:06:46.000Z,0
2023-03-28T01:09:27.000Z,0
2023-03-28T01:12:09.000Z,0
2023-03-28T01:14:50.000Z,0
2023-03-28T01:17:31.000Z,0
2023-03-28T01:20:09.000Z,0
2023-03-28T01:22:51.000Z,0
2023-03-28T01:25:32.000Z,0
2023-03-28T01:28:13.000Z,0
2023-03-28T01:30:55.000Z,0
2023-03-28T01:33:39.000Z,0
2023-03-28T01:36:20.000Z,0
2023-03-28T01:39:01.000Z,0
2023-03-28T01:41:45.000Z,0
2023-03-28T01:44:25.000Z,0
2023-03-28T01:47:04.000Z,0
2023-03-28T01:49:48.000Z,0
2023-03-28T01:52:31.000Z,0
2023-03-28T01:55:15.000Z,0
2023-03-28T01:57:58.000Z,0
2023-03-28T02:00:40.000Z,0
2023-03-28T02:03:20.000Z,0
2023-03-28T02:06:04.000Z,0
2023-03-28T02:08:43.000Z,0
2023-03-28T02:11:24.000Z,0
2023-03-28T02:14:05.000Z,0
2023-03-28T02:16:46.000Z,0
2023-03-28T02:19:30.000Z,0
2023-03-28T02:22:10.000Z,0
2023-03-28T02:24:50.000Z,0
2023-03-28T02:27:33.000Z,0
2023-03-28T02:30:16.000Z,0
2023-03-28T02:32:57.000Z,0
2023-03-28T02:35:39.000Z,0
2023-03-28T02:38:22.000Z,0
2023-03-28T02:41:01.000Z,0
2023-03-28T02:43:43.000Z,0
2023-03-28T02:46:21.000Z,0
2023-03-28T02:49:04.000Z,0
2023-03-28T02:51:45.000Z,0
2023-03-28T02:54:24.000Z,0
2023-03-28T02:57:05.000Z,0
2023-03-28T02:59:47.000Z,0
2023-03-28T03:02:25.000Z,0
2023-03-28T03:05:06.000Z,0
2023-03-28T03:07:49.000Z,0
2023-03-28T03:10:31.000Z,0
2023-03-28T03:13:13.000Z,0
2023-03-28T03:15:54.000Z,0
2023-03-28T03:18:39.000Z,0
2023-03-28T03:21:17.000Z,0
2023-03-28T03:23:58.000Z,0
2023-03-28T03:26:40.000Z,0
2023-03-28T03:29:20.000Z,0
2023-03-28T03:32:00.000Z,0
2023-03-28T03:34:41.000Z,0
2023-03-28T03:37:22.000Z,0
2023-03-28T03:40:04.000Z,0
2023-03-28T03:42:46.000Z,0
2023-03-28T03:45:27.000Z,0
2023-03-28T03:48:09.000Z,0
2023-03-28T03:50:49.000Z,0
2023-03-28T03:53:31.000Z,0
2023-03-28T03:56:09.000Z,0
2023-03-28T03:58:48.000Z,0
2023-03-28T04:01:32.000Z,0
2023-03-28T04:04:12.000Z,0
2023-03-28T04:06:52.000Z,0
2023-03-28T04:09:32.000Z,0
2023-03-28T04:12:14.000Z,0
2023-03-28T04:14:55.000Z,0
2023-03-28T04:17:38.000Z,1
2023-03-28T04:20:19.000Z,1
2023-03-28T04:23:01.000Z,2
2023-03-28T04:25:43.000Z,3
2023-03-28T04:28:25.000Z,5
2023-03-28T04:31:07.000Z,9
2023-03-28T04:33:46.000Z,14
2023-03-28T04:36:24.000Z,21
2023-03-28T04:39:01.000Z,32
2023-03-28T04:41:43.000Z,51
2023-03-28T04:44:23.000Z,75
2023-03-28T04:47:06.000Z,112
2023-03-28T04:49:47.000Z,162
2023-03-28T04:52:31.000Z,221
2023-03-28T04:55:14.000Z,295
2023-03-28T04:57:54.000Z,415
2023-03-28T05:00:37.000Z,502
2023-03-28T05:03:20.000Z,676
2023-03-28T05:06:02.000Z,893
2023-03-28T05:08:43.000Z,960
2023-03-28T05:11:25.000Z,1210
2023-03-28T05:14:06.000Z,1492
2023-03-28T05:16:48.000Z,1628
2023-03-28T05:19:30.000Z,2295
2023-03-28T05:22:11.000Z,2550
2023-03-28T05:24:52.000Z,4178
2023-03-28T05:27:32.000Z,3590
2023-03-28T05:30:14.000Z,3361
2023-03-28T05:32:56.000Z,3340
2023-03-28T05:35:39.000Z,2937
2023-03-28T05:38:18.000Z,3293
2023-03-28T05:41:01.000Z,4933
2023-03-28T05:43:42.000Z,3452
2023-03-28T05:46:24.000Z,3368
2023-03-28T05:49:05.000Z,3624
2023-03-28T05:51:47.000Z,3892
2023-03-28T05:54:30.000Z,3619
2023-03-28T05:57:10.000Z,4897
2023-03-28T05:59:48.000Z,4154
2023-03-28T06:02:35.000Z,4574
2023-03-28T06:05:16.000Z,5659
2023-03-28T06:07:57.000Z,5326
2023-03-28T06:10:39.000Z,5422
2023-03-28T06:13:19.000Z,5595
2023-03-28T06:16:00.000Z,6254
2023-03-28T06:18:41.000Z,5865
2023-03-28T06:21:21.000Z,6097
2023-03-28T06:24:02.000Z,7286
2023-03-28T06:26:43.000Z,5832
2023-03-28T06:29:25.000Z,5285
2023-03-28T06:32:07.000Z,8313
2023-03-28T06:34:50.000Z,8306
2023-03-28T06:37:29.000Z,8462
2023-03-28T06:40:11.000Z,7954
2023-03-28T06:42:53.000Z,11239
2023-03-28T06:45:32.000Z,8318
2023-03-28T06:48:12.000Z,13015
2023-03-28T06:50:54.000Z,11874
2023-03-28T06:53:33.000Z,14206
2023-03-28T06:56:14.000Z,12037
2023-03-28T06:58:55.000Z,8408
2023-03-28T07:01:35.000Z,10109
2023-03-28T07:04:17.000Z,11901
2023-03-28T07:06:58.000Z,14867
2023-03-28T07:09:40.000Z,12616
2023-03-28T07:12:22.000Z,9153
2023-03-28T07:15:02.000Z,8776
2023-03-28T07:17:43.000Z,17344
2023-03-28T07:20:25.000Z,14025
2023-03-28T07:23:04.000Z,18120
2023-03-28T07:25:45.000Z,24224
2023-03-28T07:28:34.000Z,13341
2023-03-28T07:31:16.000Z,14256
2023-03-28T07:33:57.000Z,20632
2023-03-28T07:36:38.000Z,9827
2023-03-28T07:39:20.000Z,22376
2023-03-28T07:42:00.000Z,13328
2023-03-28T07:44:41.000Z,11535
2023-03-28T07:47:24.000Z,14635
2023-03-28T07:50:06.000Z,21088
2023-03-28T07:52:45.000Z,26664
2023-03-28T07:55:26.000Z,40192
2023-03-28T07:58:06.000Z,26864
2023-03-28T08:00:47.000Z,27032
2023-03-28T08:03:30.000Z,33624
2023-03-28T08:06:07.000Z,17952
2023-03-28T08:08:45.000Z,23488
2023-03-28T08:11:24.000Z,65535
2023-03-28T08:14:06.000Z,57256
2023-03-28T08:16:49.000Z,60232
2023-03-28T08:19:31.000Z,61232
2023-03-28T08:22:13.000Z,11363
2023-03-28T08:24:55.000Z,13221
2023-03-28T08:27:38.000Z,11775
2023-03-28T08:30:23.000Z,47640
2023-03-28T08:33:01.000Z,53296
2023-03-28T08:35:45.000Z,34456
2023-03-28T08:38:24.000Z,45288
2023-03-28T08:41:08.000Z,15771
2023-03-28T08:43:50.000Z,17280
2023-03-28T08:46:32.000Z,9906
2023-03-28T08:49:13.000Z,58368
2023-03-28T08:51:55.000Z,45896
2023-03-28T08:54:38.000Z,49840
2023-03-28T08:57:20.000Z,16704
2023-03-28T09:00:04.000Z,49584
2023-03-28T09:02:41.000Z,13122
2023-03-28T09:05:20.000Z,65535
2023-03-28T09:08:04.000Z,53856
2023-03-28T09:10:44.000Z,19200
2023-03-28T09:13:25.000Z,57448
2023-03-28T09:16:08.000Z,25160
2023-03-28T09:18:50.000Z,20488
2023-03-28T09:21:31.000Z,18272
2023-03-28T09:24:13.000Z,65535
2023-03-28T09:26:59.000Z,56720
2023-03-28T09:29:40.000Z,26616
2023-03-28T09:32:24.000Z,24424
2023-03-28T09:35:05.000Z,50896
2023-03-28T09:37:47.000Z,65535
2023-03-28T09:40:31.000Z,65535
2023-03-28T09:43:13.000Z,65535
2023-03-28T09:46:00.000Z,21840
2023-03-28T09:48:42.000Z,22640
2023-03-28T09:51:30.000Z,27568
2023-03-28T09:54:13.000Z,43232
2023-03-28T09:56:54.000Z,64248
2023-03-28T09:59:35.000Z,65535
2023-03-28T10:02:18.000Z,65535
2023-03-28T10:05:03.000Z,57832
2023-03-28T10:07:48.000Z,65535
2023-03-28T10:10:32.000Z,65535
2023-03-28T10:13:13.000Z,65535
2023-03-28T10:15:56.000Z,30800
2023-03-28T10:18:37.000Z,27456
2023-03-28T10:21:20.000Z,26232
2023-03-28T10:24:01.000Z,26024
2023-03-28T10:26:43.000Z,22368
2023-03-28T10:29:25.000Z,15556
2023-03-28T10:32:07.000Z,65535
2023-03-28T10:34:49.000Z,65535
2023-03-28T10:37:31.000Z,65535
2023-03-28T10:40:13.000Z,65535
2023-03-28T10:43:04.000Z,65535
2023-03-28T10:45:43.000Z,65535
2023-03-28T10:48:26.000Z,65535
2023-03-28T10:51:09.000Z,20240
2023-03-28T10:53:50.000Z,19080
2023-03-28T10:56:32.000Z,65535
2023-03-28T10:59:15.000Z,65535
2023-03-28T11:01:58.000Z,65535
2023-03-28T11:04:41.000Z,24120
2023-03-28T11:07:23.000Z,65535
2023-03-28T11:10:08.000Z,65535
2023-03-28T11:12:48.000Z,65535
2023-03-28T11:15:31.000Z,65535
2023-03-28T11:18:16.000Z,65535
2023-03-28T11:20:58.000Z,65535
2023-03-28T11:23:40.000Z,37400
2023-03-28T11:26:24.000Z,37840
2023-03-28T11:29:07.000Z,22984
2023-03-28T11:31:51.000Z,29016
2023-03-28T11:34:33.000Z,45616
2023-03-28T11:37:14.000Z,65535
2023-03-28T11:39:58.000Z,65535
2023-03-28T11:42:41.000Z,65535
2023-03-28T11:45:24.000Z,65535
2023-03-28T11:48:08.000Z,54864
2023-03-28T11:50:50.000Z,28696
2023-03-28T11:53:33.000Z,65535
2023-03-28T11:56:15.000Z,65535
2023-03-28T11:58:58.000Z,65535
2023-03-28T12:01:40.000Z,65535
2023-03-28T12:04:26.000Z,65535
2023-03-28T12:07:08.000Z,65535
2023-03-28T12:09:52.000Z,65535
2023-03-28T12:12:33.000Z,40752
2023-03-28T12:15:15.000Z,38464
2023-03-28T12:17:59.000Z,24760
2023-03-28T12:20:46.000Z,28336
2023-03-28T12:23:28.000Z,50240
2023-03-28T12:26:11.000Z,62664
2023-03-28T12:28:55.000Z,38912
2023-03-28T12:31:39.000Z,65535
2023-03-28T12:34:21.000Z,38408
2023-03-28T12:37:05.000Z,65535
2023-03-28T12:39:52.000Z,65535
2023-03-28T12:42:35.000Z,65535
2023-03-28T12:45:18.000Z,65535
2023-03-28T12:47:59.000Z,21504
2023-03-28T12:50:41.000Z,65535
2023-03-28T12:53:24.000Z,65535
2023-03-28T12:56:07.000Z,65535
2023-03-28T12:58:48.000Z,65535
2023-03-28T13:01:30.000Z,65535
2023-03-28T13:04:14.000Z,65535
2023-03-28T13:06:56.000Z,65535
2023-03-28T13:09:38.000Z,34448
2023-03-28T13:12:21.000Z,40152
2023-03-28T13:15:04.000Z,65535
2023-03-28T13:17:51.000Z,28656
2023-03-28T13:20:34.000Z,15728
2023-03-28T13:23:19.000Z,10726
2023-03-28T13:26:05.000Z,10927
2023-03-28T13:28:46.000Z,13853
2023-03-28T13:31:29.000Z,17392
2023-03-28T13:34:13.000Z,17120
2023-03-28T13:36:57.000Z,14220
2023-03-28T13:39:41.000Z,15764
2023-03-28T13:42:24.000Z,21304
2023-03-28T13:45:08.000Z,20784
2023-03-28T13:47:48.000Z,12548
2023-03-28T13:50:30.000Z,12951
2023-03-28T13:53:12.000Z,57840
2023-03-28T13:55:55.000Z,57152
2023-03-28T13:58:39.000Z,54288
2023-03-28T14:01:23.000Z,59392
2023-03-28T14:04:06.000Z,26392
2023-03-28T14:06:55.000Z,56288
2023-03-28T14:09:39.000Z,16872
2023-03-28T14:12:24.000Z,15100
2023-03-28T14:15:12.000Z,15189
2023-03-28T14:17:55.000Z,14375
2023-03-28T14:20:40.000Z,9270
2023-03-28T14:23:23.000Z,7072
2023-03-28T14:26:08.000Z,7707
2023-03-28T14:28:48.000Z,6678
2023-03-28T14:31:32.000Z,7683
2023-03-28T14:34:13.000Z,10953
2023-03-28T14:36:56.000Z,16440
2023-03-28T14:39:38.000Z,20808
2023-03-28T14:42:25.000Z,23312
2023-03-28T14:45:07.000Z,21696
2023-03-28T14:47:50.000Z,19728
2023-03-28T14:50:33.000Z,20864
2023-03-28T14:53:15.000Z,19096
2023-03-28T14:56:00.000Z,15654
2023-03-28T14:58:41.000Z,11934
2023-03-28T15:01:29.000Z,8595
2023-03-28T15:04:08.000Z,6287
2023-03-28T15:06:53.000Z,5604
2023-03-28T15:09:34.000Z,5285
2023-03-28T15:12:15.000Z,5593
2023-03-28T15:14:58.000Z,5615
2023-03-28T15:17:40.000Z,5195
2023-03-28T15:20:26.000Z,5330
2023-03-28T15:23:10.000Z,5266
2023-03-28T15:25:51.000Z,4821
2023-03-28T15:28:34.000Z,4630
2023-03-28T15:31:18.000Z,4496
2023-03-28T15:33:59.000Z,4361
2023-03-28T15:36:42.000Z,4262
2023-03-28T15:39:28.000Z,5243
2023-03-28T15:42:09.000Z,5771
2023-03-28T15:44:52.000Z,5016
2023-03-28T15:47:35.000Z,4556
2023-03-28T15:50:18.000Z,4556
2023-03-28T15:53:00.000Z,5590
2023-03-28T15:55:41.000Z,8110
2023-03-28T15:58:25.000Z,11108
2023-03-28T16:01:07.000Z,10204
2023-03-28T16:03:48.000Z,8686
2023-03-28T16:06:34.000Z,8389
2023-03-28T16:09:18.000Z,8940
2023-03-28T16:12:02.000Z,9403
2023-03-28T16:14:50.000Z,9188
2023-03-28T16:17:34.000Z,8754
2023-03-28T16:20:16.000Z,7528
2023-03-28T16:23:00.000Z,6975
2023-03-28T16:25:43.000Z,6825
2023-03-28T16:28:26.000Z,6473
2023-03-28T16:31:09.000Z,5956
2023-03-28T16:33:58.000Z,5143
2023-03-28T16:36:41.000Z,5260
2023-03-28T16:39:24.000Z,4917
2023-03-28T16:42:06.000Z,4690
2023-03-28T16:44:49.000Z,4632
2023-03-28T16:47:33.000Z,5027
2023-03-28T16:50:21.000Z,4869
2023-03-28T16:53:06.000Z,4376
2023-03-28T16:55:48.000Z,3960
2023-03-28T16:58:36.000Z,3754
2023-03-28T17:01:25.000Z,3579
2023-03-28T17:04:12.000Z,3187
2023-03-28T17:06:57.000Z,2834
2023-03-28T17:09:41.000Z,2515
2023-03-28T17:12:37.000Z,2152
2023-03-28T17:15:30.000Z,1847
2023-03-28T17:18:26.000Z,1631
2023-03-28T17:21:15.000Z,1396
2023-03-28T17:24:04.000Z,1179
2023-03-28T17:26:52.000Z,921
2023-03-28T17:29:32.000Z,697
2023-03-28T17:32:20.000Z,502
2023-03-28T17:35:06.000Z,359
2023-03-28T17:38:04.000Z,266
2023-03-28T17:40:55.000Z,187
2023-03-28T17:43:56.000Z,124
2023-03-28T17:46:46.000Z,83
2023-03-28T17:49:31.000Z,54
2023-03-28T17:52:20.000Z,33
2023-03-28T17:55:05.000Z,20
2023-03-28T17:57:57.000Z,12
2023-03-28T18:00:37.000Z,8
2023-03-28T18:03:31.000Z,4
2023-03-28T18:07:00.000Z,2
2023-03-28T18:10:13.000Z,1
2023-03-28T18:12:53.000Z,1
2023-03-28T18:15:33.000Z,0
2023-03-28T18:18:21.000Z,0
2023-03-28T18:21:04.000Z,0
2023-03-28T18:23:48.000Z,0
2023-03-28T18:26:38.000Z,0
2023-03-28T18:29:20.000Z,0
2023-03-28T18:32:03.000Z,0
2023-03-28T18:34:46.000Z,0
2023-03-28T18:37:29.000Z,0
2023-03-28T18:40:10.000Z,0
2023-03-28T18:42:51.000Z,0
2023-03-28T18:45:35.000Z,0
2023-03-28T18:48:18.000Z,0
2023-03-28T18:51:00.000Z,0
2023-03-28T18:53:41.000Z,0
2023-03-28T18:56:24.000Z,0
2023-03-28T18:59:09.000Z,0
2023-03-28T19:02:02.000Z,0
2023-03-28T19:04:45.000Z,0
2023-03-28T19:07:30.000Z,0
2023-03-28T19:10:11.000Z,0
2023-03-28T19:12:52.000Z,0
2023-03-28T19:15:36.000Z,0
2023-03-28T19:18:23.000Z,0
2023-03-28T19:21:05.000Z,0
2023-03-28T19:23:47.000Z,0
2023-03-28T19:26:32.000Z,0
2023-03-28T19:29:13.000Z,0
2023-03-28T19:32:00.000Z,0
2023-03-28T19:34:42.000Z,0
2023-03-28T19:37:25.000Z,0
2023-03-28T19:40:14.000Z,0
2023-03-28T19:42:58.000Z,0
2023-03-28T19:45:46.000Z,0
2023-03-28T19:48:30.000Z,0
2023-03-28T19:51:14.000Z,0
2023-03-28T19:53:58.000Z,0
2023-03-28T19:56:50.000Z,0
2023-03-28T19:59:32.000Z,0
2023-03-28T20:02:17.000Z,0
2023-03-28T20:04:59.000Z,0
2023-03-28T20:07:41.000Z,0
2023-03-28T20:10:24.000Z,0
2023-03-28T20:13:06.000Z,0
2023-03-28T20:15:48.000Z,0
2023-03-28T20:18:32.000Z,0
2023-03-28T20:21:15.000Z,0
2023-03-28T20:24:10.000Z,0
2023-03-28T20:26:55.000Z,0
2023-03-28T20:29:38.000Z,0
2023-03-28T20:32:21.000Z,0
2023-03-28T20:35:03.000Z,0
2023-03-28T20:37:45.000Z,0
2023-03-28T20:40:26.000Z,0
2023-03-28T20:43:08.000Z,0
2023-03-28T20:45:46.000Z,0
2023-03-28T20:48:30.000Z,0
2023-03-28T20:51:14.000Z,0
2023-03-28T20:53:57.000Z,0
2023-03-28T20:56:39.000Z,0
2023-03-28T20:59:23.000Z,0
2023-03-28T21:02:09.000Z,0
2023-03-28T21:04:50.000Z,0
2023-03-28T21:07:33.000Z,0
2023-03-28T21:10:16.000Z,0
2023-03-28T21:12:59.000Z,0
2023-03-28T21:15:42.000Z,0
2023-03-28T21:18:25.000Z,0
2023-03-28T21:21:07.000Z,0
2023-03-28T21:23:50.000Z,0
2023-03-28T21:26:31.000Z,0
2023-03-28T21:29:16.000Z,0
2023-03-28T21:31:57.000Z,0
2023-03-28T21:34:37.000Z,0
2023-03-28T21:37:20.000Z,0
2023-03-28T21:40:04.000Z,0
2023-03-28T21:42:48.000Z,0
2023-03-28T21:45:29.000Z,0
2023-03-28T21:48:09.000Z,0
2023-03-28T21:50:50.000Z,0
2023-03-28T21:53:32.000Z,0
2023-03-28T21:56:14.000Z,0
2023-03-28T21:58:56.000Z,0
2023-03-28T22:01:47.000Z,0
2023-03-28T22:04:29.000Z,0
2023-03-28T22:07:09.000Z,0
2023-03-28T22:09:52.000Z,0
2023-03-28T22:12:34.000Z,0
2023-03-28T22:15:19.000Z,0
2023-03-28T22:18:01.000Z,0
2023-03-28T22:20:45.000Z,0
2023-03-28T22:23:28.000Z,0
2023-03-28T22:26:07.000Z,0
2023-03-28T22:28:49.000Z,0
2023-03-28T22:31:35.000Z,0
2023-03-28T22:34:17.000Z,0
2023-03-28T22:37:00.000Z,0
2023-03-28T22:39:40.000Z,0
2023-03-28T22:42:22.000Z,0
2023-03-28T22:45:04.000Z,0
2023-03-28T22:47:45.000Z,0
2023-03-28T22:50:28.000Z,0
2023-03-28T22:53:13.000Z,0
2023-03-28T22:55:55.000Z,0
2023-03-28T22:58:43.000Z,0
2023-03-28T23:01:25.000Z,0
2023-03-28T23:04:07.000Z,0
2023-03-28T23:06:48.000Z,0
2023-03-28T23:09:30.000Z,0
2023-03-28T23:12:09.000Z,0
2023-03-28T23:14:55.000Z,0
2023-03-28T23:17:37.000Z,0
2023-03-28T23:20:19.000Z,0
2023-03-28T23:23:10.000Z,0
2023-03-28T23:25:54.000Z,0
2023-03-28T23:28:36.000Z,0
2023-03-28T23:31:19.000Z,0
2023-03-28T23:34:01.000Z,0
2023-03-28T23:36:43.000Z,0
2023-03-28T23:39:25.000Z,0
2023-03-28T23:42:08.000Z,0
2023-03-28T23:44:50.000Z,0
2023-03-28T23:47:32.000Z,0
2023-03-28T23:50:14.000Z,0
2023-03-28T23:52:56.000Z,0
2023-03-28T23:55:37.000Z,0
2023-03-28T23:58:20.000Z,0
